sensor_id;sensor_type;location;lat;lon;timestamp;pressure;altitude;pressure_sealevel;temperature;humidity
1726;BME280;41776;48.260;8.928;2023-02-15T00:01:48;52606.78;;;-145.69;100.00
1726;BME280;41776;48.260;8.928;2023-02-15T00:04:17;52610.75;;;-145.69;100.00
1726;BME280;41776;48.260;8.928;2023-02-15T00:06:44;52583.00;;;-145.69;100.00
1726;BME280;41776;48.260;8.928;2023-02-15T00:09:11;52590.94;;;-145.69;100.00
1726;BME280;41776;48.260;8.928;2023-02-15T00:11:38;52586.97;;;-145.69;100.00
1726;BME280;41776;48.260;8.928;2023-02-15T00:14:18;52585.00;;;-145.69;100.00
1726;BME280;41776;48.260;8.928;2023-02-15T00:16:50;52620.66;;;-145.69;100.00
1726;BME280;41776;48.260;8.928;2023-02-15T00:19:20;52602.81;;;-145.69;100.00
1726;BME280;41776;48.260;8.928;2023-02-15T00:21:48;52622.63;;;-145.69;100.00
1726;BME280;41776;48.260;8.928;2023-02-15T00:24:19;52600.84;;;-145.69;100.00
1726;BME280;41776;48.260;8.928;2023-02-15T00:26:46;52583.00;;;-145.69;100.00
1726;BME280;41776;48.260;8.928;2023-02-15T00:29:16;52628.56;;;-145.69;100.00
1726;BME280;41776;48.260;8.928;2023-02-15T00:31:45;52592.91;;;-145.69;100.00
1726;BME280;41776;48.260;8.928;2023-02-15T00:34:13;52622.63;;;-145.69;100.00
1726;BME280;41776;48.260;8.928;2023-02-15T00:36:40;52590.94;;;-145.69;100.00
1726;BME280;41776;48.260;8.928;2023-02-15T00:39:10;52634.50;;;-145.69;100.00
1726;BME280;41776;48.260;8.928;2023-02-15T00:41:42;52567.16;;;-145.69;100.00
1726;BME280;41776;48.260;8.928;2023-02-15T00:44:09;52618.66;;;-145.69;100.00
1726;BME280;41776;48.260;8.928;2023-02-15T00:46:37;52586.97;;;-145.69;100.00
1726;BME280;41776;48.260;8.928;2023-02-15T00:49:04;52563.22;;;-145.69;98.81
1726;BME280;41776;48.260;8.928;2023-02-15T00:51:31;52590.94;;;-145.69;89.97
1726;BME280;41776;48.260;8.928;2023-02-15T00:53:59;52594.91;;;-145.69;90.71
1726;BME280;41776;48.260;8.928;2023-02-15T00:56:26;52594.91;;;-145.69;91.80
1726;BME280;41776;48.260;8.928;2023-02-15T00:58:53;52610.75;;;-145.69;96.61
1726;BME280;41776;48.260;8.928;2023-02-15T01:01:20;52563.22;;;-145.69;99.79
1726;BME280;41776;48.260;8.928;2023-02-15T01:03:51;52590.94;;;-145.69;95.82
1726;BME280;41776;48.260;8.928;2023-02-15T01:06:17;52565.19;;;-145.69;97.64
1726;BME280;41776;48.260;8.928;2023-02-15T01:08:44;52588.97;;;-145.69;98.33
1726;BME280;41776;48.260;8.928;2023-02-15T01:11:13;52583.00;;;-145.69;100.00
1726;BME280;41776;48.260;8.928;2023-02-15T01:13:42;52600.84;;;-145.69;100.00
1726;BME280;41776;48.260;8.928;2023-02-15T01:16:08;52602.81;;;-145.69;98.01
1726;BME280;41776;48.260;8.928;2023-02-15T01:18:35;52602.81;;;-145.69;100.00
1726;BME280;41776;48.260;8.928;2023-02-15T01:21:12;52598.84;;;-145.69;96.48
1726;BME280;41776;48.260;8.928;2023-02-15T01:23:41;52583.00;;;-145.69;97.23
1726;BME280;41776;48.260;8.928;2023-02-15T01:26:11;52559.25;;;-145.69;98.20
1726;BME280;41776;48.260;8.928;2023-02-15T01:28:37;52586.97;;;-145.69;98.97
1726;BME280;41776;48.260;8.928;2023-02-15T01:31:05;52602.81;;;-145.69;100.00
1726;BME280;41776;48.260;8.928;2023-02-15T01:33:33;52600.84;;;-145.69;100.00
1726;BME280;41776;48.260;8.928;2023-02-15T01:35:59;52616.69;;;-145.69;98.79
1726;BME280;41776;48.260;8.928;2023-02-15T01:38:36;52579.06;;;-145.69;100.00
1726;BME280;41776;48.260;8.928;2023-02-15T01:41:03;52610.75;;;-145.69;100.00
1726;BME280;41776;48.260;8.928;2023-02-15T01:44:02;52579.06;;;-145.69;93.42
1726;BME280;41776;48.260;8.928;2023-02-15T01:46:31;52585.00;;;-145.69;95.48
1726;BME280;41776;48.260;8.928;2023-02-15T01:49:02;52598.84;;;-145.69;92.99
1726;BME280;41776;48.260;8.928;2023-02-15T01:51:32;52600.84;;;-145.69;92.73
1726;BME280;41776;48.260;8.928;2023-02-15T01:54:05;52610.75;;;-145.69;95.81
1726;BME280;41776;48.260;8.928;2023-02-15T01:56:37;52606.78;;;-145.69;95.97
1726;BME280;41776;48.260;8.928;2023-02-15T01:59:07;52608.75;;;-145.69;95.29
1726;BME280;41776;48.260;8.928;2023-02-15T02:01:35;52612.72;;;-145.69;95.09
1726;BME280;41776;48.260;8.928;2023-02-15T02:04:06;52620.66;;;-145.69;92.12
1726;BME280;41776;48.260;8.928;2023-02-15T02:06:36;52586.97;;;-145.69;91.47
1726;BME280;41776;48.260;8.928;2023-02-15T02:09:05;52575.09;;;-145.69;94.84
1726;BME280;41776;48.260;8.928;2023-02-15T02:11:32;52598.84;;;-145.69;90.75
1726;BME280;41776;48.260;8.928;2023-02-15T02:14:02;52569.16;;;-145.69;92.54
1726;BME280;41776;48.260;8.928;2023-02-15T02:16:36;52583.00;;;-145.69;93.97
1726;BME280;41776;48.260;8.928;2023-02-15T02:19:32;52588.97;;;-145.69;99.85
1726;BME280;41776;48.260;8.928;2023-02-15T02:25:42;52606.78;;;-145.69;92.22
1726;BME280;41776;48.260;8.928;2023-02-15T02:28:29;52575.09;;;-145.69;93.17
1726;BME280;41776;48.260;8.928;2023-02-15T02:31:22;52543.41;;;-145.69;92.79
1726;BME280;41776;48.260;8.928;2023-02-15T02:34:01;52598.84;;;-145.69;92.03
1726;BME280;41776;48.260;8.928;2023-02-15T02:36:40;52541.44;;;-145.69;92.69
1726;BME280;41776;48.260;8.928;2023-02-15T02:39:17;52571.13;;;-145.69;91.09
1726;BME280;41776;48.260;8.928;2023-02-15T02:41:56;52588.97;;;-145.69;91.25
1726;BME280;41776;48.260;8.928;2023-02-15T02:44:29;52583.00;;;-145.69;94.11
1726;BME280;41776;48.260;8.928;2023-02-15T02:47:05;52565.19;;;-145.69;93.94
1726;BME280;41776;48.260;8.928;2023-02-15T02:49:40;52592.91;;;-145.69;95.90
1726;BME280;41776;48.260;8.928;2023-02-15T02:52:36;52577.06;;;-145.69;95.11
1726;BME280;41776;48.260;8.928;2023-02-15T02:55:05;52626.59;;;-145.69;95.00
1726;BME280;41776;48.260;8.928;2023-02-15T02:57:33;52559.25;;;-145.69;93.43
1726;BME280;41776;48.260;8.928;2023-02-15T03:00:03;52575.09;;;-145.69;92.49
1726;BME280;41776;48.260;8.928;2023-02-15T03:02:37;52555.28;;;-145.69;88.34
1726;BME280;41776;48.260;8.928;2023-02-15T03:05:09;52551.31;;;-145.69;90.28
1726;BME280;41776;48.260;8.928;2023-02-15T03:07:39;52581.03;;;-145.69;88.18
1726;BME280;41776;48.260;8.928;2023-02-15T03:10:08;52541.44;;;-145.69;89.31
1726;BME280;41776;48.260;8.928;2023-02-15T03:12:39;52571.13;;;-145.69;88.23
1726;BME280;41776;48.260;8.928;2023-02-15T03:15:12;52565.19;;;-145.69;85.24
1726;BME280;41776;48.260;8.928;2023-02-15T03:17:43;52559.25;;;-145.69;87.80
1726;BME280;41776;48.260;8.928;2023-02-15T03:20:18;52579.06;;;-145.69;89.27
1726;BME280;41776;48.260;8.928;2023-02-15T03:22:50;52577.06;;;-145.69;93.36
1726;BME280;41776;48.260;8.928;2023-02-15T03:25:20;52640.44;;;-145.69;88.05
1726;BME280;41776;48.260;8.928;2023-02-15T03:27:54;52549.34;;;-145.69;87.73
1726;BME280;41776;48.260;8.928;2023-02-15T03:30:24;52573.13;;;-145.69;85.48
1726;BME280;41776;48.260;8.928;2023-02-15T03:32:52;52579.06;;;-145.69;85.66
1726;BME280;41776;48.260;8.928;2023-02-15T03:35:23;52559.25;;;-145.69;85.92
1726;BME280;41776;48.260;8.928;2023-02-15T03:37:54;52549.34;;;-145.69;85.94
1726;BME280;41776;48.260;8.928;2023-02-15T03:40:29;52577.06;;;-145.69;84.37
1726;BME280;41776;48.260;8.928;2023-02-15T03:43:18;52563.22;;;-145.69;88.60
1726;BME280;41776;48.260;8.928;2023-02-15T03:45:52;52590.94;;;-145.69;88.85
1726;BME280;41776;48.260;8.928;2023-02-15T03:48:26;52555.28;;;-145.69;89.46
1726;BME280;41776;48.260;8.928;2023-02-15T03:50:58;52531.53;;;-145.69;87.09
1726;BME280;41776;48.260;8.928;2023-02-15T03:53:48;52559.25;;;-145.69;85.07
1726;BME280;41776;48.260;8.928;2023-02-15T03:56:18;52565.19;;;-145.69;84.47
1726;BME280;41776;48.260;8.928;2023-02-15T03:58:45;52579.06;;;-145.69;84.23
1726;BME280;41776;48.260;8.928;2023-02-15T04:01:34;52543.41;;;-145.69;86.53
1726;BME280;41776;48.260;8.928;2023-02-15T04:04:38;52590.94;;;-145.69;83.16
1726;BME280;41776;48.260;8.928;2023-02-15T04:07:10;52559.25;;;-145.69;89.35
1726;BME280;41776;48.260;8.928;2023-02-15T04:09:37;52586.97;;;-145.69;89.38
1726;BME280;41776;48.260;8.928;2023-02-15T04:12:24;52594.91;;;-145.69;91.68
1726;BME280;41776;48.260;8.928;2023-02-15T04:14:50;52533.50;;;-145.69;84.92
1726;BME280;41776;48.260;8.928;2023-02-15T04:17:35;52600.84;;;-145.69;88.82
1726;BME280;41776;48.260;8.928;2023-02-15T04:20:04;52573.13;;;-145.69;85.32
1726;BME280;41776;48.260;8.928;2023-02-15T04:22:52;52604.81;;;-145.69;88.59
1726;BME280;41776;48.260;8.928;2023-02-15T04:25:36;52571.13;;;-145.69;79.80
1726;BME280;41776;48.260;8.928;2023-02-15T04:28:03;52594.91;;;-145.69;79.95
1726;BME280;41776;48.260;8.928;2023-02-15T04:30:29;52594.91;;;-145.69;83.95
1726;BME280;41776;48.260;8.928;2023-02-15T04:32:56;52567.16;;;-145.69;80.71
1726;BME280;41776;48.260;8.928;2023-02-15T04:35:33;52583.00;;;-145.69;80.91
1726;BME280;41776;48.260;8.928;2023-02-15T04:38:02;52608.75;;;-145.69;77.42
1726;BME280;41776;48.260;8.928;2023-02-15T04:40:29;52547.38;;;-145.69;88.89
1726;BME280;41776;48.260;8.928;2023-02-15T04:42:55;52600.84;;;-145.69;87.60
1726;BME280;41776;48.260;8.928;2023-02-15T04:45:22;52563.22;;;-145.69;88.93
1726;BME280;41776;48.260;8.928;2023-02-15T04:47:48;52586.97;;;-145.69;89.20
1726;BME280;41776;48.260;8.928;2023-02-15T04:50:15;52539.44;;;-145.69;92.45
1726;BME280;41776;48.260;8.928;2023-02-15T04:52:44;52586.97;;;-145.69;93.24
1726;BME280;41776;48.260;8.928;2023-02-15T04:55:11;52594.91;;;-145.69;93.99
1726;BME280;41776;48.260;8.928;2023-02-15T04:57:39;52579.06;;;-145.69;92.03
1726;BME280;41776;48.260;8.928;2023-02-15T05:00:07;52579.06;;;-145.69;86.51
1726;BME280;41776;48.260;8.928;2023-02-15T05:02:34;52557.28;;;-145.69;88.11
1726;BME280;41776;48.260;8.928;2023-02-15T05:05:00;52579.06;;;-145.69;87.50
1726;BME280;41776;48.260;8.928;2023-02-15T05:07:32;52585.00;;;-145.69;88.24
1726;BME280;41776;48.260;8.928;2023-02-15T05:10:01;52577.06;;;-145.69;86.20
1726;BME280;41776;48.260;8.928;2023-02-15T05:12:27;52567.16;;;-145.69;84.90
1726;BME280;41776;48.260;8.928;2023-02-15T05:14:54;52569.16;;;-145.69;85.52
1726;BME280;41776;48.260;8.928;2023-02-15T05:17:24;52579.06;;;-145.69;85.59
1726;BME280;41776;48.260;8.928;2023-02-15T05:19:50;52571.13;;;-145.69;87.72
1726;BME280;41776;48.260;8.928;2023-02-15T05:22:17;52583.00;;;-145.69;86.21
1726;BME280;41776;48.260;8.928;2023-02-15T05:24:43;52583.00;;;-145.69;88.16
1726;BME280;41776;48.260;8.928;2023-02-15T05:27:32;52555.28;;;-145.69;87.66
1726;BME280;41776;48.260;8.928;2023-02-15T05:30:16;52569.16;;;-145.69;89.26
1726;BME280;41776;48.260;8.928;2023-02-15T05:32:42;52557.28;;;-145.69;84.64
1726;BME280;41776;48.260;8.928;2023-02-15T05:35:13;52571.13;;;-145.69;83.73
1726;BME280;41776;48.260;8.928;2023-02-15T05:37:39;52563.22;;;-145.69;86.58
1726;BME280;41776;48.260;8.928;2023-02-15T05:40:07;52598.84;;;-145.69;87.09
1726;BME280;41776;48.260;8.928;2023-02-15T05:42:35;52567.16;;;-145.69;87.41
1726;BME280;41776;48.260;8.928;2023-02-15T05:45:06;52563.22;;;-145.69;84.68
1726;BME280;41776;48.260;8.928;2023-02-15T05:47:35;52559.25;;;-145.69;85.75
1726;BME280;41776;48.260;8.928;2023-02-15T05:50:02;52547.38;;;-145.69;84.02
1726;BME280;41776;48.260;8.928;2023-02-15T05:52:28;52557.28;;;-145.69;89.22
1726;BME280;41776;48.260;8.928;2023-02-15T05:54:55;52557.28;;;-145.69;90.30
1726;BME280;41776;48.260;8.928;2023-02-15T05:57:21;52551.31;;;-145.69;91.08
1726;BME280;41776;48.260;8.928;2023-02-15T05:59:49;52539.44;;;-145.69;88.44
1726;BME280;41776;48.260;8.928;2023-02-15T06:02:19;52583.00;;;-145.69;87.38
1726;BME280;41776;48.260;8.928;2023-02-15T06:04:45;52559.25;;;-145.69;85.42
1726;BME280;41776;48.260;8.928;2023-02-15T06:07:12;52555.28;;;-145.69;85.55
1726;BME280;41776;48.260;8.928;2023-02-15T06:09:41;52561.22;;;-145.69;88.34
1726;BME280;41776;48.260;8.928;2023-02-15T06:12:07;52583.00;;;-145.69;94.19
1726;BME280;41776;48.260;8.928;2023-02-15T06:14:34;52590.94;;;-145.69;96.98
1726;BME280;41776;48.260;8.928;2023-02-15T06:17:01;52563.22;;;-145.69;94.40
1726;BME280;41776;48.260;8.928;2023-02-15T06:19:28;52559.25;;;-145.69;94.57
1726;BME280;41776;48.260;8.928;2023-02-15T06:21:54;52575.09;;;-145.69;94.95
1726;BME280;41776;48.260;8.928;2023-02-15T06:24:21;52588.97;;;-145.69;94.08
1726;BME280;41776;48.260;8.928;2023-02-15T06:26:48;52553.31;;;-145.69;92.12
1726;BME280;41776;48.260;8.928;2023-02-15T06:29:14;52563.22;;;-145.69;91.22
1726;BME280;41776;48.260;8.928;2023-02-15T06:31:41;52579.06;;;-145.69;91.68
1726;BME280;41776;48.260;8.928;2023-02-15T06:34:09;52579.06;;;-145.69;91.71
1726;BME280;41776;48.260;8.928;2023-02-15T06:36:35;52565.19;;;-145.69;92.42
1726;BME280;41776;48.260;8.928;2023-02-15T06:39:05;52585.00;;;-145.69;92.32
1726;BME280;41776;48.260;8.928;2023-02-15T06:41:32;52575.09;;;-145.69;92.28
1726;BME280;41776;48.260;8.928;2023-02-15T06:43:58;52577.06;;;-145.69;92.73
1726;BME280;41776;48.260;8.928;2023-02-15T06:46:25;52555.28;;;-145.69;89.94
1726;BME280;41776;48.260;8.928;2023-02-15T06:48:58;52586.97;;;-145.69;89.77
1726;BME280;41776;48.260;8.928;2023-02-15T06:51:26;52598.84;;;-145.69;89.39
1726;BME280;41776;48.260;8.928;2023-02-15T06:53:52;52541.44;;;-145.69;92.25
1726;BME280;41776;48.260;8.928;2023-02-15T06:56:19;52557.28;;;-145.69;91.33
1726;BME280;41776;48.260;8.928;2023-02-15T06:58:51;52557.28;;;-145.69;91.09
1726;BME280;41776;48.260;8.928;2023-02-15T07:01:18;52563.22;;;-145.69;85.17
1726;BME280;41776;48.260;8.928;2023-02-15T07:03:48;52586.97;;;-145.69;87.25
1726;BME280;41776;48.260;8.928;2023-02-15T07:06:14;52575.09;;;-145.69;86.87
1726;BME280;41776;48.260;8.928;2023-02-15T07:08:43;52557.28;;;-145.69;84.33
1726;BME280;41776;48.260;8.928;2023-02-15T07:11:10;52555.28;;;-145.69;89.56
1726;BME280;41776;48.260;8.928;2023-02-15T07:13:54;52553.31;;;-145.69;87.73
1726;BME280;41776;48.260;8.928;2023-02-15T07:16:20;52539.44;;;-145.69;86.11
1726;BME280;41776;48.260;8.928;2023-02-15T07:18:47;52594.91;;;-145.69;87.09
1726;BME280;41776;48.260;8.928;2023-02-15T07:21:14;52581.03;;;-145.69;87.01
1726;BME280;41776;48.260;8.928;2023-02-15T07:23:40;52571.13;;;-145.69;86.52
1726;BME280;41776;48.260;8.928;2023-02-15T07:26:10;52559.25;;;-145.69;85.24
1726;BME280;41776;48.260;8.928;2023-02-15T07:28:39;52569.16;;;-145.69;82.08
1726;BME280;41776;48.260;8.928;2023-02-15T07:31:06;52527.56;;;-145.69;80.08
1726;BME280;41776;48.260;8.928;2023-02-15T07:33:35;52563.22;;;-145.69;80.55
1726;BME280;41776;48.260;8.928;2023-02-15T07:36:03;52541.44;;;-145.69;80.47
1726;BME280;41776;48.260;8.928;2023-02-15T07:38:32;52549.34;;;-145.69;80.69
1726;BME280;41776;48.260;8.928;2023-02-15T07:40:59;52563.22;;;-145.69;83.81
1726;BME280;41776;48.260;8.928;2023-02-15T07:43:27;52555.28;;;-145.69;83.60
1726;BME280;41776;48.260;8.928;2023-02-15T07:45:54;52535.47;;;-145.69;83.01
1726;BME280;41776;48.260;8.928;2023-02-15T07:48:21;52515.69;;;-145.69;87.34
1726;BME280;41776;48.260;8.928;2023-02-15T07:50:49;52586.97;;;-145.69;81.25
1726;BME280;41776;48.260;8.928;2023-02-15T07:53:16;52547.38;;;-145.69;73.24
1726;BME280;41776;48.260;8.928;2023-02-15T07:55:42;52555.28;;;-145.69;74.57
1726;BME280;41776;48.260;8.928;2023-02-15T07:58:09;52557.28;;;-145.69;74.50
1726;BME280;41776;48.260;8.928;2023-02-15T08:00:37;52583.00;;;-145.69;75.21
1726;BME280;41776;48.260;8.928;2023-02-15T08:03:19;52529.53;;;-145.69;74.34
1726;BME280;41776;48.260;8.928;2023-02-15T08:05:48;52541.44;;;-145.69;78.11
1726;BME280;41776;48.260;8.928;2023-02-15T08:08:15;52527.56;;;-145.69;78.54
1726;BME280;41776;48.260;8.928;2023-02-15T08:10:58;52507.75;;;-145.69;79.02
1726;BME280;41776;48.260;8.928;2023-02-15T08:13:45;52531.53;;;-145.69;79.87
1726;BME280;41776;48.260;8.928;2023-02-15T08:16:31;52567.16;;;-145.69;79.05
1726;BME280;41776;48.260;8.928;2023-02-15T08:18:59;52571.13;;;-145.69;78.41
1726;BME280;41776;48.260;8.928;2023-02-15T08:21:27;52535.47;;;-145.69;76.08
1726;BME280;41776;48.260;8.928;2023-02-15T08:23:55;52539.44;;;-145.69;73.78
1726;BME280;41776;48.260;8.928;2023-02-15T08:26:25;52543.41;;;-145.69;73.64
1726;BME280;41776;48.260;8.928;2023-02-15T08:28:52;52557.28;;;-145.69;71.91
1726;BME280;41776;48.260;8.928;2023-02-15T08:31:19;52531.53;;;-145.69;70.99
1726;BME280;41776;48.260;8.928;2023-02-15T08:33:50;52535.47;;;-145.69;70.03
1726;BME280;41776;48.260;8.928;2023-02-15T08:36:19;52531.53;;;-145.69;67.32
1726;BME280;41776;48.260;8.928;2023-02-15T08:38:47;52511.72;;;-145.69;67.08
1726;BME280;41776;48.260;8.928;2023-02-15T08:41:15;52497.84;;;-145.69;67.26
1726;BME280;41776;48.260;8.928;2023-02-15T08:43:44;52495.88;;;-145.69;65.73
1726;BME280;41776;48.260;8.928;2023-02-15T08:46:12;52527.56;;;-145.69;62.56
1726;BME280;41776;48.260;8.928;2023-02-15T08:48:41;52515.69;;;-145.69;60.46
1726;BME280;41776;48.260;8.928;2023-02-15T08:51:12;52515.69;;;-145.69;60.23
1726;BME280;41776;48.260;8.928;2023-02-15T08:53:39;52537.47;;;-145.69;56.62
1726;BME280;41776;48.260;8.928;2023-02-15T08:56:07;52499.84;;;-145.69;55.06
1726;BME280;41776;48.260;8.928;2023-02-15T08:58:34;52482.00;;;-145.69;57.46
1726;BME280;41776;48.260;8.928;2023-02-15T09:01:08;52515.69;;;-145.69;56.44
1726;BME280;41776;48.260;8.928;2023-02-15T09:03:34;52517.66;;;-145.69;54.77
1726;BME280;41776;48.260;8.928;2023-02-15T09:06:01;52519.63;;;-145.69;56.48
1726;BME280;41776;48.260;8.928;2023-02-15T09:08:29;52517.66;;;-145.69;50.60
1726;BME280;41776;48.260;8.928;2023-02-15T09:11:05;52489.94;;;-145.69;50.32
1726;BME280;41776;48.260;8.928;2023-02-15T09:13:32;52511.72;;;-145.69;51.04
1726;BME280;41776;48.260;8.928;2023-02-15T09:16:00;52533.50;;;-145.69;49.17
1726;BME280;41776;48.260;8.928;2023-02-15T09:18:27;52511.72;;;-145.69;48.45
1726;BME280;41776;48.260;8.928;2023-02-15T09:20:53;52511.72;;;-145.69;48.73
1726;BME280;41776;48.260;8.928;2023-02-15T09:23:20;52480.03;;;-145.69;46.56
1726;BME280;41776;48.260;8.928;2023-02-15T09:25:48;52517.66;;;-145.69;47.92
1726;BME280;41776;48.260;8.928;2023-02-15T09:28:14;52503.81;;;-145.69;47.73
1726;BME280;41776;48.260;8.928;2023-02-15T09:30:41;52428.53;;;-145.69;46.07
1726;BME280;41776;48.260;8.928;2023-02-15T09:33:09;52470.13;;;-145.69;45.92
1726;BME280;41776;48.260;8.928;2023-02-15T09:35:42;52456.28;;;-145.69;44.74
1726;BME280;41776;48.260;8.928;2023-02-15T09:38:08;52474.09;;;-145.69;46.03
1726;BME280;41776;48.260;8.928;2023-02-15T09:40:43;52440.44;;;-145.69;46.43
1726;BME280;41776;48.260;8.928;2023-02-15T09:43:28;52468.16;;;-145.69;46.31
1726;BME280;41776;48.260;8.928;2023-02-15T09:46:06;52454.28;;;-145.69;43.57
1726;BME280;41776;48.260;8.928;2023-02-15T09:48:41;52472.13;;;-145.69;45.27
1726;BME280;41776;48.260;8.928;2023-02-15T09:51:31;52487.97;;;-145.69;42.66
1726;BME280;41776;48.260;8.928;2023-02-15T09:54:23;52497.84;;;-145.69;43.35
1726;BME280;41776;48.260;8.928;2023-02-15T09:56:58;52487.97;;;-145.69;42.62
1726;BME280;41776;48.260;8.928;2023-02-15T09:59:33;52460.22;;;-145.69;42.41
1726;BME280;41776;48.260;8.928;2023-02-15T10:02:14;52466.16;;;-145.69;42.22
1726;BME280;41776;48.260;8.928;2023-02-15T10:04:57;52422.59;;;-145.69;40.67
1726;BME280;41776;48.260;8.928;2023-02-15T10:10:39;52468.16;;;-145.69;40.19
1726;BME280;41776;48.260;8.928;2023-02-15T10:13:24;52426.56;;;-145.69;40.19
1726;BME280;41776;48.260;8.928;2023-02-15T10:16:08;52460.22;;;-145.69;37.45
1726;BME280;41776;48.260;8.928;2023-02-15T10:18:55;52394.88;;;-145.69;35.67
1726;BME280;41776;48.260;8.928;2023-02-15T10:21:35;52418.63;;;-145.69;35.05
1726;BME280;41776;48.260;8.928;2023-02-15T10:24:23;52432.50;;;-145.69;35.20
1726;BME280;41776;48.260;8.928;2023-02-15T10:26:56;52381.00;;;-145.69;35.93
1726;BME280;41776;48.260;8.928;2023-02-15T10:29:31;52424.59;;;-145.69;35.42
1726;BME280;41776;48.260;8.928;2023-02-15T10:32:11;52434.47;;;-145.69;34.92
1726;BME280;41776;48.260;8.928;2023-02-15T10:34:48;52456.28;;;-145.69;34.29
1726;BME280;41776;48.260;8.928;2023-02-15T10:40:24;52408.75;;;-145.69;33.48
1726;BME280;41776;48.260;8.928;2023-02-15T10:43:09;52400.81;;;-145.69;33.74
1726;BME280;41776;48.260;8.928;2023-02-15T10:45:47;52404.78;;;-145.69;31.46
1726;BME280;41776;48.260;8.928;2023-02-15T10:48:33;52379.03;;;-145.69;32.35
1726;BME280;41776;48.260;8.928;2023-02-15T10:51:07;52440.44;;;-145.69;32.24
1726;BME280;41776;48.260;8.928;2023-02-15T10:53:57;52394.88;;;-145.69;32.69
1726;BME280;41776;48.260;8.928;2023-02-15T10:56:34;52373.09;;;-145.69;33.21
1726;BME280;41776;48.260;8.928;2023-02-15T10:59:22;52402.78;;;-145.69;33.66
1726;BME280;41776;48.260;8.928;2023-02-15T11:01:55;52404.78;;;-145.69;33.19
1726;BME280;41776;48.260;8.928;2023-02-15T11:04:39;52392.91;;;-145.69;34.39
1726;BME280;41776;48.260;8.928;2023-02-15T11:07:16;52412.69;;;-145.69;34.70
1726;BME280;41776;48.260;8.928;2023-02-15T11:09:47;52396.84;;;-145.69;35.29
1726;BME280;41776;48.260;8.928;2023-02-15T11:12:18;52373.09;;;-145.69;33.78
1726;BME280;41776;48.260;8.928;2023-02-15T11:14:48;52388.94;;;-145.69;34.74
1726;BME280;41776;48.260;8.928;2023-02-15T11:17:19;52400.81;;;-145.69;34.02
1726;BME280;41776;48.260;8.928;2023-02-15T11:19:55;52386.97;;;-145.69;34.61
1726;BME280;41776;48.260;8.928;2023-02-15T11:22:23;52404.78;;;-145.69;32.56
1726;BME280;41776;48.260;8.928;2023-02-15T11:24:50;52392.91;;;-145.69;34.16
1726;BME280;41776;48.260;8.928;2023-02-15T11:27:20;52371.13;;;-145.69;33.36
1726;BME280;41776;48.260;8.928;2023-02-15T11:29:54;52402.78;;;-145.69;33.32
1726;BME280;41776;48.260;8.928;2023-02-15T11:32:26;52371.13;;;-145.69;34.56
1726;BME280;41776;48.260;8.928;2023-02-15T11:34:59;52398.84;;;-145.69;33.79
1726;BME280;41776;48.260;8.928;2023-02-15T11:37:32;52388.94;;;-145.69;34.31
1726;BME280;41776;48.260;8.928;2023-02-15T11:40:02;52381.00;;;-145.69;34.84
1726;BME280;41776;48.260;8.928;2023-02-15T11:42:31;52410.72;;;-145.69;34.19
1726;BME280;41776;48.260;8.928;2023-02-15T11:45:02;52394.88;;;-145.69;34.03
1726;BME280;41776;48.260;8.928;2023-02-15T11:47:30;52365.16;;;-145.69;33.51
1726;BME280;41776;48.260;8.928;2023-02-15T11:50:00;52365.16;;;-145.69;33.49
1726;BME280;41776;48.260;8.928;2023-02-15T11:52:26;52351.31;;;-145.69;33.77
1726;BME280;41776;48.260;8.928;2023-02-15T11:54:53;52390.91;;;-145.69;31.01
1726;BME280;41776;48.260;8.928;2023-02-15T11:57:23;52357.25;;;-145.69;32.07
1726;BME280;41776;48.260;8.928;2023-02-15T11:59:56;52353.28;;;-145.69;31.48
1726;BME280;41776;48.260;8.928;2023-02-15T12:02:24;52353.28;;;-145.69;32.10
1726;BME280;41776;48.260;8.928;2023-02-15T12:04:57;52343.38;;;-145.69;32.46
1726;BME280;41776;48.260;8.928;2023-02-15T12:07:29;52361.22;;;-145.69;33.24
1726;BME280;41776;48.260;8.928;2023-02-15T12:10:02;52341.41;;;-145.69;31.58
1726;BME280;41776;48.260;8.928;2023-02-15T12:12:33;52359.22;;;-145.69;30.88
1726;BME280;41776;48.260;8.928;2023-02-15T12:15:01;52377.06;;;-145.69;31.09
1726;BME280;41776;48.260;8.928;2023-02-15T12:17:30;52373.09;;;-145.69;31.60
1726;BME280;41776;48.260;8.928;2023-02-15T12:20:00;52325.56;;;-145.69;31.97
1726;BME280;41776;48.260;8.928;2023-02-15T12:22:30;52321.59;;;-145.69;31.61
1726;BME280;41776;48.260;8.928;2023-02-15T12:25:00;52369.13;;;-145.69;30.99
1726;BME280;41776;48.260;8.928;2023-02-15T12:27:28;52341.41;;;-145.69;30.81
1726;BME280;41776;48.260;8.928;2023-02-15T12:29:57;52349.31;;;-145.69;30.19
1726;BME280;41776;48.260;8.928;2023-02-15T12:32:27;52327.53;;;-145.69;29.13
1726;BME280;41776;48.260;8.928;2023-02-15T12:35:00;52325.56;;;-145.69;28.80
1726;BME280;41776;48.260;8.928;2023-02-15T12:37:31;52319.63;;;-145.69;28.36
1726;BME280;41776;48.260;8.928;2023-02-15T12:40:01;52333.47;;;-145.69;27.85
1726;BME280;41776;48.260;8.928;2023-02-15T12:42:41;52345.38;;;-145.69;28.80
1726;BME280;41776;48.260;8.928;2023-02-15T12:45:21;52325.56;;;-145.69;27.49
1726;BME280;41776;48.260;8.928;2023-02-15T12:48:08;52329.53;;;-145.69;28.14
1726;BME280;41776;48.260;8.928;2023-02-15T12:50:35;52341.41;;;-145.69;27.80
1726;BME280;41776;48.260;8.928;2023-02-15T12:53:12;52325.56;;;-145.69;30.21
1726;BME280;41776;48.260;8.928;2023-02-15T12:55:49;52353.28;;;-145.69;29.00
1726;BME280;41776;48.260;8.928;2023-02-15T12:58:19;52317.66;;;-145.69;28.31
1726;BME280;41776;48.260;8.928;2023-02-15T13:00:56;52341.41;;;-145.69;28.38
1726;BME280;41776;48.260;8.928;2023-02-15T13:03:31;52317.66;;;-145.69;29.15
1726;BME280;41776;48.260;8.928;2023-02-15T13:05:58;52339.44;;;-145.69;29.07
1726;BME280;41776;48.260;8.928;2023-02-15T13:08:30;52323.59;;;-145.69;29.33
1726;BME280;41776;48.260;8.928;2023-02-15T13:11:00;52337.44;;;-145.69;29.99
1726;BME280;41776;48.260;8.928;2023-02-15T13:13:29;52301.81;;;-145.69;28.58
1726;BME280;41776;48.260;8.928;2023-02-15T13:15:59;52345.38;;;-145.69;28.92
1726;BME280;41776;48.260;8.928;2023-02-15T13:18:31;52307.75;;;-145.69;29.15
1726;BME280;41776;48.260;8.928;2023-02-15T13:21:06;52301.81;;;-145.69;28.98
1726;BME280;41776;48.260;8.928;2023-02-15T13:23:39;52297.84;;;-145.69;29.34